createdAt,value
2018-07-28T00:02:08.713Z,16.93
2018-07-28T00:04:36.958Z,17.20
2018-07-28T00:07:05.242Z,16.70
2018-07-28T00:09:33.531Z,16.07
2018-07-28T00:12:01.859Z,18.03
2018-07-28T00:14:30.175Z,16.27
2018-07-28T00:16:59.265Z,16.67
2018-07-28T00:19:27.538Z,16.70
2018-07-28T00:21:55.795Z,16.67
2018-07-28T00:24:24.076Z,16.53
2018-07-28T00:26:52.316Z,16.63
2018-07-28T00:29:20.590Z,15.13
2018-07-28T00:31:48.946Z,15.73
2018-07-28T00:34:17.212Z,15.23
2018-07-28T00:36:45.704Z,15.80
2018-07-28T00:39:14.588Z,16.27
2018-07-28T00:41:43.201Z,16.53
2018-07-28T00:44:11.520Z,15.47
2018-07-28T00:46:39.776Z,14.87
2018-07-28T00:49:08.275Z,15.30
2018-07-28T00:51:36.918Z,15.60
2018-07-28T00:54:05.224Z,16.43
2018-07-28T00:56:33.894Z,17.43
2018-07-28T00:59:02.164Z,16.90
2018-07-28T01:01:30.744Z,18.80
2018-07-28T01:03:59.013Z,17.57
2018-07-28T01:06:27.261Z,16.80
2018-07-28T01:08:55.524Z,16.77
2018-07-28T01:11:23.816Z,18.63
2018-07-28T01:13:52.153Z,16.67
2018-07-28T01:16:20.415Z,18.23
2018-07-28T01:18:50.768Z,18.17
2018-07-28T01:21:19.088Z,18.93
2018-07-28T01:23:47.349Z,19.17
2018-07-28T01:26:15.844Z,19.70
2018-07-28T01:28:48.420Z,21.20
2018-07-28T01:31:16.732Z,20.27
2018-07-28T01:33:45.141Z,20.67
2018-07-28T01:36:13.388Z,22.30
2018-07-28T01:38:41.647Z,22.27
2018-07-28T01:41:09.926Z,22.17
2018-07-28T01:43:38.231Z,25.40
2018-07-28T01:46:06.512Z,23.80
2018-07-28T01:48:34.844Z,24.00
2018-07-28T01:51:03.210Z,20.40
2018-07-28T01:53:31.478Z,21.93
2018-07-28T01:55:59.829Z,21.67
2018-07-28T01:58:28.117Z,21.00
2018-07-28T02:00:56.404Z,23.20
2018-07-28T02:03:24.732Z,23.07
2018-07-28T02:05:52.989Z,24.20
2018-07-28T02:08:21.297Z,23.87
2018-07-28T02:10:49.543Z,24.27
2018-07-28T02:13:17.798Z,24.23
2018-07-28T02:15:46.217Z,24.67
2018-07-28T02:18:14.763Z,26.37
2018-07-28T02:20:43.052Z,26.33
2018-07-28T02:23:11.351Z,28.93
2018-07-28T02:25:39.612Z,25.67
2018-07-28T02:28:07.918Z,23.83
2018-07-28T02:30:36.186Z,22.17
2018-07-28T02:33:04.423Z,22.87
2018-07-28T02:35:32.889Z,24.53
2018-07-28T02:38:01.162Z,22.47
2018-07-28T02:40:29.453Z,24.20
2018-07-28T02:42:57.744Z,21.33
2018-07-28T02:45:26.015Z,22.83
2018-07-28T02:47:54.304Z,20.43
2018-07-28T02:50:22.574Z,22.23
2018-07-28T02:52:51.071Z,20.53
2018-07-28T02:55:19.336Z,19.93
2018-07-28T02:57:47.633Z,20.80
2018-07-28T03:00:16.983Z,23.70
2018-07-28T03:02:45.598Z,22.60
2018-07-28T03:05:13.872Z,22.70
2018-07-28T03:07:42.126Z,24.33
2018-07-28T03:10:10.384Z,22.23
2018-07-28T03:12:38.683Z,25.00
2018-07-28T03:15:24.571Z,22.90
2018-07-28T03:17:52.924Z,25.97
2018-07-28T03:20:21.179Z,24.57
2018-07-28T03:22:50.284Z,25.67
2018-07-28T03:25:18.700Z,26.07
2018-07-28T03:27:47.405Z,24.90
2018-07-28T03:30:15.976Z,26.33
2018-07-28T03:32:44.428Z,28.83
2018-07-28T03:35:12.956Z,31.33
2018-07-28T03:37:41.224Z,35.70
2018-07-28T03:42:44.628Z,30.43
2018-07-28T03:45:12.905Z,31.07
2018-07-28T03:47:41.924Z,27.33
2018-07-28T03:50:10.595Z,25.63
2018-07-28T03:52:38.836Z,26.80
2018-07-28T03:55:08.175Z,26.07
2018-07-28T03:57:43.012Z,26.27
2018-07-28T04:00:12.548Z,23.90
2018-07-28T04:02:40.815Z,22.70
2018-07-28T04:05:10.628Z,21.07
2018-07-28T04:07:39.141Z,21.70
2018-07-28T04:10:08.106Z,22.37
2018-07-28T04:12:36.405Z,22.17
2018-07-28T04:15:06.330Z,24.90
2018-07-28T04:17:39.204Z,19.93
2018-07-28T04:20:07.492Z,20.47
2018-07-28T04:22:35.776Z,20.60
2018-07-28T04:25:04.068Z,21.17
2018-07-28T04:27:32.341Z,20.30
2018-07-28T04:30:00.630Z,23.40
2018-07-28T04:32:28.895Z,23.40
2018-07-28T04:34:57.200Z,23.70
2018-07-28T04:37:25.459Z,21.70
2018-07-28T04:39:53.701Z,22.33
2018-07-28T04:42:22.855Z,23.67
2018-07-28T04:44:51.227Z,31.67
2018-07-28T04:47:19.561Z,34.60
2018-07-28T04:49:47.835Z,36.17
2018-07-28T04:52:16.118Z,39.70
2018-07-28T04:54:44.657Z,36.00
2018-07-28T04:57:12.996Z,32.13
2018-07-28T04:59:41.729Z,32.37
2018-07-28T05:02:10.033Z,28.97
2018-07-28T05:04:38.352Z,27.63
2018-07-28T05:07:06.672Z,27.73
2018-07-28T05:09:34.948Z,29.50
2018-07-28T05:12:03.229Z,26.90
2018-07-28T05:14:31.528Z,26.80
2018-07-28T05:16:59.812Z,26.57
2018-07-28T05:19:28.084Z,24.80
2018-07-28T05:21:56.540Z,24.50
2018-07-28T05:24:24.828Z,23.23
2018-07-28T05:26:53.140Z,24.10
2018-07-28T05:29:21.439Z,24.70
2018-07-28T05:31:49.688Z,22.37
2018-07-28T05:34:17.944Z,21.17
2018-07-28T05:36:46.589Z,22.63
2018-07-28T05:39:14.866Z,22.40
2018-07-28T05:41:43.149Z,20.73
2018-07-28T05:44:11.392Z,19.90
2018-07-28T05:46:39.640Z,19.10
2018-07-28T05:49:07.885Z,18.03
2018-07-28T05:51:36.206Z,19.20
2018-07-28T05:54:04.471Z,20.67
2018-07-28T05:56:32.727Z,20.60
2018-07-28T05:59:00.975Z,20.07
2018-07-28T06:01:29.259Z,25.33
2018-07-28T06:03:57.527Z,23.87
2018-07-28T06:06:25.769Z,27.33
2018-07-28T06:08:54.136Z,22.80
2018-07-28T06:11:22.380Z,24.40
2018-07-28T06:13:50.729Z,20.97
2018-07-28T06:16:19.002Z,21.43
2018-07-28T06:18:47.285Z,21.07
2018-07-28T06:21:15.589Z,20.03
2018-07-28T06:23:43.855Z,17.83
2018-07-28T06:26:12.204Z,15.90
2018-07-28T06:28:40.451Z,14.43
2018-07-28T06:31:08.738Z,13.15
2018-07-28T06:33:37.047Z,12.65
2018-07-28T06:36:05.327Z,14.00
2018-07-28T06:38:33.585Z,14.83
2018-07-28T06:41:01.877Z,15.27
2018-07-28T06:43:30.196Z,14.17
2018-07-28T06:45:58.526Z,14.13
2018-07-28T06:48:26.763Z,13.43
2018-07-28T06:50:55.021Z,14.07
2018-07-28T06:53:23.315Z,13.20
2018-07-28T06:55:51.618Z,14.03
2018-07-28T06:58:20.132Z,13.53
2018-07-28T07:00:48.396Z,12.70
2018-07-28T07:03:16.656Z,19.80
2018-07-28T07:05:45.916Z,16.73
2018-07-28T07:08:14.329Z,17.47
2018-07-28T07:10:42.623Z,16.77
2018-07-28T07:13:10.884Z,13.23
2018-07-28T07:15:39.144Z,11.57
2018-07-28T07:18:07.428Z,13.97
2018-07-28T07:20:35.672Z,15.60
2018-07-28T07:23:03.928Z,14.53
2018-07-28T07:25:32.165Z,14.90
2018-07-28T07:28:00.445Z,12.50
2018-07-28T07:30:28.756Z,13.90
2018-07-28T07:32:57.089Z,13.03
2018-07-28T07:35:25.357Z,12.30
2018-07-28T07:37:53.625Z,12.13
2018-07-28T07:40:21.870Z,16.17
2018-07-28T07:42:50.076Z,12.73
2018-07-28T07:45:18.275Z,13.70
2018-07-28T07:47:46.647Z,12.90
2018-07-28T07:50:14.875Z,13.23
2018-07-28T07:52:43.198Z,16.97
2018-07-28T07:55:11.555Z,13.13
2018-07-28T07:57:39.764Z,13.57
2018-07-28T08:00:08.279Z,12.07
2018-07-28T08:02:36.498Z,11.50
2018-07-28T08:05:05.048Z,11.33
2018-07-28T08:07:33.303Z,11.73
2018-07-28T08:10:01.994Z,12.13
2018-07-28T08:12:30.233Z,10.73
2018-07-28T08:14:58.623Z,11.53
2018-07-28T08:17:26.876Z,12.37
2018-07-28T08:19:55.072Z,10.60
2018-07-28T08:22:24.299Z,13.80
2018-07-28T08:24:52.560Z,10.90
2018-07-28T08:27:20.768Z,12.27
2018-07-28T08:29:50.003Z,11.50
2018-07-28T08:32:18.247Z,11.50
2018-07-28T08:34:46.917Z,11.67
2018-07-28T08:37:15.125Z,11.57
2018-07-28T08:39:43.364Z,11.27
2018-07-28T08:42:11.612Z,11.40
2018-07-28T08:44:39.873Z,10.73
2018-07-28T08:47:08.911Z,14.33
2018-07-28T08:49:37.186Z,12.20
2018-07-28T08:52:05.459Z,11.87
2018-07-28T08:54:33.745Z,11.70
2018-07-28T08:57:01.994Z,20.07
2018-07-28T08:59:30.200Z,15.77
2018-07-28T09:01:58.416Z,14.47
2018-07-28T09:04:26.629Z,11.67
2018-07-28T09:06:54.872Z,10.03
2018-07-28T09:09:23.147Z,9.27
2018-07-28T09:11:51.344Z,13.13
2018-07-28T09:14:19.653Z,9.70
2018-07-28T09:16:47.894Z,9.83
2018-07-28T09:19:16.137Z,11.33
2018-07-28T09:21:44.397Z,18.13
2018-07-28T09:24:12.684Z,12.60
2018-07-28T09:26:40.908Z,9.53
2018-07-28T09:29:09.161Z,9.77
2018-07-28T09:31:37.416Z,8.67
2018-07-28T09:34:05.758Z,11.90
2018-07-28T09:36:33.983Z,13.07
2018-07-28T09:39:02.216Z,10.23
2018-07-28T09:41:30.411Z,9.23
2018-07-28T09:43:58.627Z,10.47
2018-07-28T09:46:26.927Z,9.83
2018-07-28T09:48:55.136Z,9.63
2018-07-28T09:51:23.335Z,9.00
2018-07-28T09:53:51.728Z,8.10
2018-07-28T09:56:20.441Z,8.23
2018-07-28T09:58:48.891Z,8.10
2018-07-28T10:01:19.138Z,7.17
2018-07-28T10:03:47.997Z,8.37
2018-07-28T10:06:16.275Z,8.27
2018-07-28T10:08:44.601Z,9.17
2018-07-28T10:11:13.232Z,10.03
2018-07-28T10:13:41.471Z,6.90
2018-07-28T10:16:09.774Z,8.50
2018-07-28T10:18:38.215Z,10.63
2018-07-28T10:21:06.512Z,8.13
2018-07-28T10:23:34.919Z,9.30
2018-07-28T10:26:03.153Z,11.60
2018-07-28T10:28:31.733Z,7.33
2018-07-28T10:30:59.955Z,7.85
2018-07-28T10:33:28.147Z,6.50
2018-07-28T10:35:56.391Z,8.28
2018-07-28T10:38:24.636Z,7.55
2018-07-28T10:40:52.827Z,8.53
2018-07-28T10:43:21.054Z,6.65
2018-07-28T10:45:49.343Z,6.65
2018-07-28T10:48:17.555Z,6.92
2018-07-28T10:50:46.088Z,10.00
2018-07-28T10:53:14.343Z,7.95
2018-07-28T10:55:43.041Z,7.08
2018-07-28T10:58:11.263Z,7.45
2018-07-28T11:00:39.475Z,6.92
2018-07-28T11:03:07.671Z,6.42
2018-07-28T11:05:35.896Z,8.68
2018-07-28T11:08:04.240Z,6.08
2018-07-28T11:10:32.539Z,6.03
2018-07-28T11:13:00.750Z,6.30
2018-07-28T11:15:28.951Z,5.67
2018-07-28T11:17:57.146Z,6.65
2018-07-28T11:20:25.343Z,7.53
2018-07-28T11:22:53.547Z,5.40
2018-07-28T11:25:21.750Z,6.08
2018-07-28T11:27:49.960Z,8.40
2018-07-28T11:30:18.232Z,7.58
2018-07-28T11:32:52.053Z,8.18
2018-07-28T11:35:26.415Z,6.53
2018-07-28T11:38:01.013Z,6.35
2018-07-28T11:40:34.756Z,6.37
2018-07-28T11:43:08.547Z,5.72
2018-07-28T11:45:36.776Z,6.40
2018-07-28T11:48:04.977Z,5.92
2018-07-28T11:50:33.228Z,6.05
2018-07-28T11:53:01.428Z,5.45
2018-07-28T11:55:29.687Z,6.40
2018-07-28T11:57:57.924Z,5.90
2018-07-28T12:00:26.196Z,7.83
2018-07-28T12:02:54.440Z,5.58
2018-07-28T12:05:22.673Z,9.68
2018-07-28T12:07:50.899Z,6.28
2018-07-28T12:10:19.124Z,7.00
2018-07-28T12:12:47.916Z,6.92
2018-07-28T12:15:16.709Z,10.88
2018-07-28T12:17:45.679Z,5.55
2018-07-28T12:20:14.383Z,6.12
2018-07-28T12:22:43.268Z,5.97
2018-07-28T12:25:11.879Z,5.25
2018-07-28T12:27:40.657Z,5.45
2018-07-28T12:30:10.899Z,5.90
2018-07-28T12:32:39.870Z,6.42
2018-07-28T12:35:08.762Z,5.70
2018-07-28T12:37:37.580Z,5.83
2018-07-28T12:40:06.270Z,5.85
2018-07-28T12:42:35.142Z,6.35
2018-07-28T12:45:03.936Z,6.75
2018-07-28T12:47:32.854Z,6.42
2018-07-28T12:50:01.622Z,5.47
2018-07-28T12:52:30.408Z,5.53
2018-07-28T12:54:59.328Z,6.25
2018-07-28T12:57:27.771Z,7.90
2018-07-28T12:59:55.980Z,5.80
2018-07-28T13:02:24.268Z,5.70
2018-07-28T13:04:52.499Z,6.55
2018-07-28T13:07:20.743Z,5.45
2018-07-28T13:09:48.980Z,6.00
2018-07-28T13:12:17.185Z,5.60
2018-07-28T13:14:45.569Z,6.30
2018-07-28T13:17:13.854Z,5.72
2018-07-28T13:19:42.066Z,6.58
2018-07-28T13:22:10.295Z,11.20
2018-07-28T13:27:13.811Z,6.72
2018-07-28T13:29:42.120Z,6.67
2018-07-28T13:32:10.291Z,14.87
2018-07-28T13:34:38.507Z,14.53
2018-07-28T13:37:06.797Z,7.05
2018-07-28T13:39:35.001Z,5.85
2018-07-28T13:42:03.230Z,6.17
2018-07-28T13:44:31.447Z,16.65
2018-07-28T13:46:59.666Z,6.53
2018-07-28T13:49:28.140Z,6.05
2018-07-28T13:51:56.390Z,6.42
2018-07-28T13:54:24.598Z,6.10
2018-07-28T13:56:52.803Z,8.03
2018-07-28T13:59:21.096Z,5.97
2018-07-28T14:01:49.471Z,6.12
2018-07-28T14:04:19.203Z,5.45
2018-07-28T14:06:47.489Z,5.83
2018-07-28T14:09:15.754Z,5.65
2018-07-28T14:11:43.963Z,6.10
2018-07-28T14:14:12.214Z,6.37
2018-07-28T14:16:40.412Z,5.72
2018-07-28T14:19:08.703Z,5.33
2018-07-28T14:21:36.908Z,6.17
2018-07-28T14:24:05.388Z,5.28
2018-07-28T14:26:33.631Z,6.90
2018-07-28T14:29:01.874Z,5.97
2018-07-28T14:31:30.148Z,5.53
2018-07-28T14:33:58.436Z,8.73
2018-07-28T14:36:26.627Z,5.60
2018-07-28T14:38:54.832Z,6.00
2018-07-28T14:41:23.253Z,5.97
2018-07-28T14:43:51.736Z,6.53
2018-07-28T14:46:19.967Z,5.97
2018-07-28T14:48:48.227Z,7.85
2018-07-28T14:51:16.528Z,7.83
2018-07-28T14:53:44.791Z,14.20
2018-07-28T14:56:13.032Z,21.15
2018-07-28T14:58:41.676Z,6.53
2018-07-28T15:01:09.928Z,6.58
2018-07-28T15:03:38.137Z,8.23
2018-07-28T15:06:06.351Z,7.42
2018-07-28T15:08:35.155Z,7.42
2018-07-28T15:11:03.882Z,6.72
2018-07-28T15:13:32.157Z,7.15
2018-07-28T15:16:00.396Z,6.37
2018-07-28T15:18:28.639Z,7.47
2018-07-28T15:20:56.988Z,7.15
2018-07-28T15:23:25.209Z,6.12
2018-07-28T15:25:53.485Z,6.42
2018-07-28T15:28:21.724Z,6.30
2018-07-28T15:30:49.944Z,7.17
2018-07-28T15:33:18.208Z,6.55
2018-07-28T15:35:46.837Z,10.05
2018-07-28T15:38:15.036Z,6.17
2018-07-28T15:40:43.263Z,8.33
2018-07-28T15:43:11.479Z,6.60
2018-07-28T15:45:39.808Z,7.55
2018-07-28T15:48:08.034Z,7.53
2018-07-28T15:50:36.292Z,7.47
2018-07-28T15:53:04.804Z,7.50
2018-07-28T15:55:33.005Z,7.83
2018-07-28T15:58:01.268Z,6.90
2018-07-28T16:00:29.455Z,7.40
2018-07-28T16:02:57.693Z,8.30
2018-07-28T16:05:25.972Z,7.10
2018-07-28T16:07:54.206Z,10.23
2018-07-28T16:10:22.420Z,8.50
2018-07-28T16:12:50.644Z,7.80
2018-07-28T16:15:18.892Z,7.53
2018-07-28T16:17:47.620Z,9.27
2018-07-28T16:20:15.902Z,8.57
2018-07-28T16:22:44.076Z,8.40
2018-07-28T16:25:12.355Z,9.07
2018-07-28T16:27:40.651Z,7.07
2018-07-28T16:30:09.431Z,6.80
2018-07-28T16:32:37.712Z,8.97
2018-07-28T16:35:06.400Z,10.00
2018-07-28T16:37:34.599Z,9.07
2018-07-28T16:40:02.963Z,9.27
2018-07-28T16:42:31.288Z,8.00
2018-07-28T16:44:59.500Z,7.63
2018-07-28T16:47:27.718Z,7.07
2018-07-28T16:49:55.912Z,9.47
2018-07-28T16:52:24.171Z,11.80
2018-07-28T16:54:52.539Z,8.47
2018-07-28T16:57:21.135Z,8.33
2018-07-28T16:59:49.412Z,7.60
2018-07-28T17:02:18.079Z,7.47
2018-07-28T17:04:46.569Z,7.70
2018-07-28T17:07:14.834Z,7.23
2018-07-28T17:09:43.221Z,7.63
2018-07-28T17:12:11.440Z,7.10
2018-07-28T17:14:39.649Z,6.90
2018-07-28T17:17:07.899Z,7.67
2018-07-28T17:19:36.192Z,7.37
2018-07-28T17:22:04.395Z,7.40
2018-07-28T17:24:32.601Z,6.80
2018-07-28T17:27:00.803Z,7.07
2018-07-28T17:29:28.999Z,8.90
2018-07-28T17:31:57.308Z,8.73
2018-07-28T17:34:25.549Z,10.30
2018-07-28T17:36:53.751Z,13.03
2018-07-28T17:39:22.011Z,15.07
2018-07-28T17:41:50.211Z,8.73
2018-07-28T17:44:18.469Z,9.53
2018-07-28T17:46:46.773Z,8.93
2018-07-28T17:49:15.013Z,10.30
2018-07-28T17:51:43.212Z,10.50
2018-07-28T17:54:11.418Z,8.87
2018-07-28T17:56:39.643Z,8.97
2018-07-28T17:59:07.844Z,7.97
2018-07-28T18:01:36.095Z,8.97
2018-07-28T18:04:04.944Z,8.30
2018-07-28T18:06:33.203Z,19.67
2018-07-28T18:09:01.552Z,40.20
2018-07-28T18:11:29.767Z,31.00
2018-07-28T18:13:57.963Z,32.87
2018-07-28T18:16:26.155Z,81.33
2018-07-28T18:18:54.405Z,94.00
2018-07-28T18:21:22.605Z,41.17
2018-07-28T18:23:50.922Z,74.97
2018-07-28T18:26:19.148Z,106.13
2018-07-28T18:28:47.580Z,73.53
2018-07-28T18:31:15.828Z,28.67
2018-07-28T18:33:44.045Z,11.73
2018-07-28T18:36:12.267Z,13.17
2018-07-28T18:38:40.460Z,10.73
2018-07-28T18:41:08.725Z,12.77
2018-07-28T18:43:36.923Z,18.73
2018-07-28T18:46:05.348Z,15.97
2018-07-28T18:48:33.608Z,14.60
2018-07-28T18:51:02.410Z,15.70
2018-07-28T18:53:30.615Z,11.27
2018-07-28T18:55:58.851Z,10.50
2018-07-28T18:58:27.107Z,12.40
2018-07-28T19:00:55.343Z,14.83
2018-07-28T19:03:23.548Z,15.47
2018-07-28T19:05:51.848Z,14.47
2018-07-28T19:08:20.548Z,15.43
2018-07-28T19:10:49.551Z,15.60
2018-07-28T19:13:23.403Z,20.20
2018-07-28T19:15:51.620Z,20.87
2018-07-28T19:18:25.186Z,14.23
2018-07-28T19:20:53.411Z,13.70
2018-07-28T19:23:28.041Z,19.13
2018-07-28T19:25:56.313Z,14.07
2018-07-28T19:28:29.962Z,16.50
2018-07-28T19:30:58.205Z,14.60
2018-07-28T19:33:26.444Z,14.47
2018-07-28T19:37:01.868Z,13.93
2018-07-28T19:39:30.083Z,15.30
2018-07-28T19:42:03.843Z,22.37
2018-07-28T19:44:32.048Z,18.73
2018-07-28T19:47:00.286Z,16.33
2018-07-28T19:49:28.532Z,17.17
2018-07-28T19:51:56.787Z,18.43
2018-07-28T19:54:25.020Z,19.30
2018-07-28T19:56:53.259Z,16.83
2018-07-28T19:59:21.475Z,18.37
2018-07-28T20:01:49.680Z,16.90
2018-07-28T20:04:17.922Z,17.33
2018-07-28T20:06:46.252Z,19.07
2018-07-28T20:09:14.480Z,18.53
2018-07-28T20:11:42.697Z,16.43
2018-07-28T20:14:10.919Z,17.47
2018-07-28T20:16:39.468Z,21.47
2018-07-28T20:19:08.112Z,17.70
2018-07-28T20:21:36.341Z,18.17
2018-07-28T20:24:04.564Z,18.23
2018-07-28T20:26:32.841Z,17.03
2018-07-28T20:29:01.094Z,15.83
2018-07-28T20:31:29.323Z,16.07
2018-07-28T20:33:57.528Z,16.07
2018-07-28T20:36:25.747Z,15.63
2018-07-28T20:38:54.023Z,17.20
2018-07-28T20:41:22.356Z,17.80
2018-07-28T20:43:51.020Z,15.23
2018-07-28T20:46:19.253Z,16.10
2018-07-28T20:48:47.690Z,15.40
2018-07-28T20:51:15.943Z,16.77
2018-07-28T20:53:44.155Z,17.20
2018-07-28T20:56:12.392Z,16.87
2018-07-28T20:58:40.668Z,16.77
2018-07-28T21:01:08.931Z,16.87
2018-07-28T21:03:37.347Z,18.93
2018-07-28T21:06:06.238Z,18.30
2018-07-28T21:08:34.435Z,17.43
2018-07-28T21:11:02.671Z,17.03
2018-07-28T21:13:30.872Z,18.10
2018-07-28T21:15:59.099Z,17.93
2018-07-28T21:18:27.331Z,18.53
2018-07-28T21:20:55.542Z,17.03
2018-07-28T21:23:23.799Z,18.10
2018-07-28T21:25:52.010Z,18.77
2018-07-28T21:28:20.227Z,19.77
2018-07-28T21:30:48.435Z,19.03
2018-07-28T21:33:16.687Z,18.30
2018-07-28T21:35:44.888Z,19.20
2018-07-28T21:38:13.104Z,20.93
2018-07-28T21:40:41.319Z,20.63
2018-07-28T21:43:09.528Z,20.03
2018-07-28T21:45:37.862Z,20.67
2018-07-28T21:48:06.486Z,20.80
2018-07-28T21:50:34.758Z,20.90
2018-07-28T21:53:03.050Z,21.57
2018-07-28T21:55:31.997Z,21.40
2018-07-28T21:58:00.580Z,19.43
2018-07-28T22:00:33.499Z,20.37
2018-07-28T22:03:01.760Z,21.10
2018-07-28T22:05:29.992Z,20.83
2018-07-28T22:07:58.207Z,22.13
2018-07-28T22:10:26.416Z,23.10
2018-07-28T22:12:54.628Z,20.67
2018-07-28T22:15:22.867Z,22.07
2018-07-28T22:17:51.079Z,22.07
2018-07-28T22:20:19.283Z,22.40
2018-07-28T22:22:47.859Z,22.57
2018-07-28T22:25:16.058Z,22.57
2018-07-28T22:27:44.363Z,21.30
2018-07-28T22:30:12.954Z,21.50
2018-07-28T22:32:41.263Z,23.23
2018-07-28T22:35:09.476Z,23.23
2018-07-28T22:37:37.771Z,23.63
2018-07-28T22:40:06.059Z,24.00
2018-07-28T22:42:39.939Z,22.50
2018-07-28T22:45:08.188Z,22.90
2018-07-28T22:47:36.392Z,23.70
2018-07-28T22:50:04.831Z,22.30
2018-07-28T22:52:33.025Z,22.07
2018-07-28T22:55:01.384Z,25.37
2018-07-28T22:57:29.625Z,23.67
2018-07-28T22:59:58.570Z,22.43
2018-07-28T23:02:27.146Z,21.60
2018-07-28T23:04:55.390Z,22.27
2018-07-28T23:07:23.615Z,21.70
2018-07-28T23:09:51.955Z,20.33
2018-07-28T23:12:20.209Z,21.43
2018-07-28T23:14:48.601Z,20.23
2018-07-28T23:17:16.948Z,20.93
2018-07-28T23:19:45.261Z,21.80
2018-07-28T23:22:14.149Z,21.43
2018-07-28T23:24:42.489Z,21.37
2018-07-28T23:27:10.740Z,21.53
2018-07-28T23:29:39.002Z,21.93
2018-07-28T23:32:07.256Z,23.60
2018-07-28T23:37:03.748Z,23.13
2018-07-28T23:39:31.990Z,22.03
2018-07-28T23:42:00.268Z,21.50
2018-07-28T23:44:28.603Z,21.63
2018-07-28T23:46:56.843Z,21.03
2018-07-28T23:49:25.069Z,21.43
2018-07-28T23:51:53.350Z,21.50
2018-07-28T23:54:21.700Z,21.67
2018-07-28T23:59:24.645Z,20.63
